sensor_id;sensor_type;location;lat;lon;timestamp;P1;durP1;ratioP1;P2;durP2;ratioP2
22490;SDS011;11412;50.802;4.350;2023-03-14T00:00:52;5.80;;;1.27;;
22490;SDS011;11412;50.802;4.350;2023-03-14T00:03:18;5.18;;;1.10;;
22490;SDS011;11412;50.802;4.350;2023-03-14T00:05:43;3.83;;;1.70;;
22490;SDS011;11412;50.802;4.350;2023-03-14T00:08:09;4.70;;;1.33;;
22490;SDS011;11412;50.802;4.350;2023-03-14T00:10:35;5.47;;;1.15;;
22490;SDS011;11412;50.802;4.350;2023-03-14T00:13:01;9.60;;;1.33;;
22490;SDS011;11412;50.802;4.350;2023-03-14T00:15:27;8.68;;;1.73;;
22490;SDS011;11412;50.802;4.350;2023-03-14T00:17:53;6.07;;;1.33;;
22490;SDS011;11412;50.802;4.350;2023-03-14T00:20:18;3.75;;;1.30;;
22490;SDS011;11412;50.802;4.350;2023-03-14T00:22:44;6.75;;;1.77;;
22490;SDS011;11412;50.802;4.350;2023-03-14T00:25:10;3.97;;;1.25;;
22490;SDS011;11412;50.802;4.350;2023-03-14T00:27:36;4.30;;;1.38;;
22490;SDS011;11412;50.802;4.350;2023-03-14T00:30:03;8.52;;;1.30;;
22490;SDS011;11412;50.802;4.350;2023-03-14T00:32:30;6.70;;;1.27;;
22490;SDS011;11412;50.802;4.350;2023-03-14T00:34:56;9.65;;;1.83;;
22490;SDS011;11412;50.802;4.350;2023-03-14T00:37:21;5.45;;;1.23;;
22490;SDS011;11412;50.802;4.350;2023-03-14T00:39:50;10.20;;;2.10;;
22490;SDS011;11412;50.802;4.350;2023-03-14T00:42:16;10.25;;;1.58;;
22490;SDS011;11412;50.802;4.350;2023-03-14T00:44:42;6.88;;;1.55;;
22490;SDS011;11412;50.802;4.350;2023-03-14T00:47:08;5.45;;;1.40;;
22490;SDS011;11412;50.802;4.350;2023-03-14T00:49:33;7.53;;;1.90;;
22490;SDS011;11412;50.802;4.350;2023-03-14T00:51:59;9.15;;;1.98;;
22490;SDS011;11412;50.802;4.350;2023-03-14T00:54:24;6.78;;;1.75;;
22490;SDS011;11412;50.802;4.350;2023-03-14T00:56:50;6.53;;;1.60;;
22490;SDS011;11412;50.802;4.350;2023-03-14T00:59:16;5.70;;;1.40;;
22490;SDS011;11412;50.802;4.350;2023-03-14T01:01:42;8.18;;;1.70;;
22490;SDS011;11412;50.802;4.350;2023-03-14T01:04:08;9.15;;;1.65;;
22490;SDS011;11412;50.802;4.350;2023-03-14T01:06:34;5.70;;;1.42;;
22490;SDS011;11412;50.802;4.350;2023-03-14T01:09:00;10.07;;;1.58;;
22490;SDS011;11412;50.802;4.350;2023-03-14T01:11:27;10.23;;;1.98;;
22490;SDS011;11412;50.802;4.350;2023-03-14T01:13:57;12.60;;;2.45;;
22490;SDS011;11412;50.802;4.350;2023-03-14T01:16:24;10.43;;;2.20;;
22490;SDS011;11412;50.802;4.350;2023-03-14T01:18:51;10.00;;;1.63;;
22490;SDS011;11412;50.802;4.350;2023-03-14T01:21:27;7.30;;;2.30;;
22490;SDS011;11412;50.802;4.350;2023-03-14T01:23:55;11.27;;;1.65;;
22490;SDS011;11412;50.802;4.350;2023-03-14T01:26:23;5.18;;;1.27;;
22490;SDS011;11412;50.802;4.350;2023-03-14T01:28:50;6.60;;;1.48;;
22490;SDS011;11412;50.802;4.350;2023-03-14T01:31:17;7.80;;;1.48;;
22490;SDS011;11412;50.802;4.350;2023-03-14T01:33:45;11.77;;;1.63;;
22490;SDS011;11412;50.802;4.350;2023-03-14T01:36:11;7.80;;;1.40;;
22490;SDS011;11412;50.802;4.350;2023-03-14T01:38:38;7.03;;;1.35;;
22490;SDS011;11412;50.802;4.350;2023-03-14T01:41:05;7.40;;;0.95;;
22490;SDS011;11412;50.802;4.350;2023-03-14T01:43:39;5.22;;;1.10;;
22490;SDS011;11412;50.802;4.350;2023-03-14T01:51:19;4.88;;;0.98;;
22490;SDS011;11412;50.802;4.350;2023-03-14T01:54:18;4.43;;;0.93;;
22490;SDS011;11412;50.802;4.350;2023-03-14T01:56:51;2.78;;;0.88;;
22490;SDS011;11412;50.802;4.350;2023-03-14T01:59:22;2.20;;;0.70;;
22490;SDS011;11412;50.802;4.350;2023-03-14T02:01:49;3.47;;;0.90;;
22490;SDS011;11412;50.802;4.350;2023-03-14T02:04:16;3.00;;;0.85;;
22490;SDS011;11412;50.802;4.350;2023-03-14T02:06:46;5.18;;;0.65;;
22490;SDS011;11412;50.802;4.350;2023-03-14T02:09:32;4.07;;;0.85;;
22490;SDS011;11412;50.802;4.350;2023-03-14T02:11:57;3.83;;;0.70;;
22490;SDS011;11412;50.802;4.350;2023-03-14T02:14:26;2.30;;;0.70;;
22490;SDS011;11412;50.802;4.350;2023-03-14T02:16:55;4.80;;;0.90;;
22490;SDS011;11412;50.802;4.350;2023-03-14T02:19:25;2.60;;;0.65;;
22490;SDS011;11412;50.802;4.350;2023-03-14T02:22:00;5.10;;;0.52;;
22490;SDS011;11412;50.802;4.350;2023-03-14T02:24:38;4.07;;;0.80;;
22490;SDS011;11412;50.802;4.350;2023-03-14T02:27:18;2.95;;;0.73;;
22490;SDS011;11412;50.802;4.350;2023-03-14T02:29:48;2.78;;;0.55;;
22490;SDS011;11412;50.802;4.350;2023-03-14T02:32:17;2.97;;;0.60;;
22490;SDS011;11412;50.802;4.350;2023-03-14T02:34:45;6.05;;;0.90;;
22490;SDS011;11412;50.802;4.350;2023-03-14T02:37:17;2.33;;;0.80;;
22490;SDS011;11412;50.802;4.350;2023-03-14T02:39:45;4.00;;;1.10;;
22490;SDS011;11412;50.802;4.350;2023-03-14T02:42:12;3.22;;;1.30;;
22490;SDS011;11412;50.802;4.350;2023-03-14T02:44:48;6.43;;;2.15;;
22490;SDS011;11412;50.802;4.350;2023-03-14T02:47:18;6.72;;;1.63;;
22490;SDS011;11412;50.802;4.350;2023-03-14T02:49:46;4.45;;;1.73;;
22490;SDS011;11412;50.802;4.350;2023-03-14T02:52:12;7.28;;;2.72;;
22490;SDS011;11412;50.802;4.350;2023-03-14T02:54:39;9.70;;;2.75;;
22490;SDS011;11412;50.802;4.350;2023-03-14T02:57:04;10.70;;;2.35;;
22490;SDS011;11412;50.802;4.350;2023-03-14T02:59:30;9.02;;;2.40;;
22490;SDS011;11412;50.802;4.350;2023-03-14T03:01:55;7.20;;;2.67;;
22490;SDS011;11412;50.802;4.350;2023-03-14T03:04:21;7.10;;;2.13;;
22490;SDS011;11412;50.802;4.350;2023-03-14T03:06:47;8.00;;;2.58;;
22490;SDS011;11412;50.802;4.350;2023-03-14T03:09:12;9.95;;;1.98;;
22490;SDS011;11412;50.802;4.350;2023-03-14T03:11:38;6.53;;;2.45;;
22490;SDS011;11412;50.802;4.350;2023-03-14T03:14:04;8.43;;;2.80;;
22490;SDS011;11412;50.802;4.350;2023-03-14T03:16:29;10.57;;;2.70;;
22490;SDS011;11412;50.802;4.350;2023-03-14T03:18:55;10.93;;;2.70;;
22490;SDS011;11412;50.802;4.350;2023-03-14T03:21:20;9.27;;;2.13;;
22490;SDS011;11412;50.802;4.350;2023-03-14T03:23:48;10.07;;;2.85;;
22490;SDS011;11412;50.802;4.350;2023-03-14T03:26:14;9.63;;;2.90;;
22490;SDS011;11412;50.802;4.350;2023-03-14T03:28:40;12.63;;;3.13;;
22490;SDS011;11412;50.802;4.350;2023-03-14T03:31:06;8.50;;;3.60;;
22490;SDS011;11412;50.802;4.350;2023-03-14T03:33:33;7.47;;;3.80;;
22490;SDS011;11412;50.802;4.350;2023-03-14T03:35:58;9.10;;;3.55;;
22490;SDS011;11412;50.802;4.350;2023-03-14T03:38:24;11.45;;;3.47;;
22490;SDS011;11412;50.802;4.350;2023-03-14T03:40:49;10.90;;;3.72;;
22490;SDS011;11412;50.802;4.350;2023-03-14T03:43:15;7.18;;;3.25;;
22490;SDS011;11412;50.802;4.350;2023-03-14T03:45:41;11.35;;;3.58;;
22490;SDS011;11412;50.802;4.350;2023-03-14T03:48:06;9.18;;;3.28;;
22490;SDS011;11412;50.802;4.350;2023-03-14T03:50:32;4.88;;;2.95;;
22490;SDS011;11412;50.802;4.350;2023-03-14T03:52:58;9.95;;;3.20;;
22490;SDS011;11412;50.802;4.350;2023-03-14T03:55:23;5.85;;;2.75;;
22490;SDS011;11412;50.802;4.350;2023-03-14T03:57:50;8.85;;;3.38;;
22490;SDS011;11412;50.802;4.350;2023-03-14T04:00:16;6.90;;;3.08;;
22490;SDS011;11412;50.802;4.350;2023-03-14T04:02:42;5.80;;;2.72;;
22490;SDS011;11412;50.802;4.350;2023-03-14T04:05:07;8.55;;;3.63;;
22490;SDS011;11412;50.802;4.350;2023-03-14T04:07:33;6.90;;;3.45;;
22490;SDS011;11412;50.802;4.350;2023-03-14T04:09:59;10.88;;;3.95;;
22490;SDS011;11412;50.802;4.350;2023-03-14T04:12:25;6.65;;;4.25;;
22490;SDS011;11412;50.802;4.350;2023-03-14T04:14:50;6.78;;;4.25;;
22490;SDS011;11412;50.802;4.350;2023-03-14T04:17:17;6.85;;;3.90;;
22490;SDS011;11412;50.802;4.350;2023-03-14T04:19:43;9.90;;;3.78;;
22490;SDS011;11412;50.802;4.350;2023-03-14T04:22:08;5.18;;;3.05;;
22490;SDS011;11412;50.802;4.350;2023-03-14T04:24:34;5.28;;;3.65;;
22490;SDS011;11412;50.802;4.350;2023-03-14T04:27:00;7.68;;;3.80;;
22490;SDS011;11412;50.802;4.350;2023-03-14T04:29:26;5.55;;;3.65;;
22490;SDS011;11412;50.802;4.350;2023-03-14T04:31:51;6.47;;;3.78;;
22490;SDS011;11412;50.802;4.350;2023-03-14T04:34:17;5.90;;;3.97;;
22490;SDS011;11412;50.802;4.350;2023-03-14T04:36:42;8.65;;;4.30;;
22490;SDS011;11412;50.802;4.350;2023-03-14T04:39:08;6.70;;;4.55;;
22490;SDS011;11412;50.802;4.350;2023-03-14T04:41:34;8.98;;;4.88;;
22490;SDS011;11412;50.802;4.350;2023-03-14T04:43:59;7.35;;;4.65;;
22490;SDS011;11412;50.802;4.350;2023-03-14T04:46:25;5.32;;;4.03;;
22490;SDS011;11412;50.802;4.350;2023-03-14T04:48:50;7.35;;;4.28;;
22490;SDS011;11412;50.802;4.350;2023-03-14T04:51:16;9.93;;;4.63;;
22490;SDS011;11412;50.802;4.350;2023-03-14T04:53:42;6.90;;;3.47;;
22490;SDS011;11412;50.802;4.350;2023-03-14T04:56:07;4.63;;;3.63;;
22490;SDS011;11412;50.802;4.350;2023-03-14T04:58:33;4.97;;;3.58;;
22490;SDS011;11412;50.802;4.350;2023-03-14T05:01:03;5.80;;;3.17;;
22490;SDS011;11412;50.802;4.350;2023-03-14T05:03:29;4.50;;;2.90;;
22490;SDS011;11412;50.802;4.350;2023-03-14T05:05:55;3.30;;;2.95;;
22490;SDS011;11412;50.802;4.350;2023-03-14T05:08:22;3.67;;;2.75;;
22490;SDS011;11412;50.802;4.350;2023-03-14T05:10:52;6.72;;;2.38;;
22490;SDS011;11412;50.802;4.350;2023-03-14T05:13:21;5.55;;;2.33;;
22490;SDS011;11412;50.802;4.350;2023-03-14T05:15:48;4.90;;;2.30;;
22490;SDS011;11412;50.802;4.350;2023-03-14T05:18:15;5.70;;;2.50;;
22490;SDS011;11412;50.802;4.350;2023-03-14T05:20:41;2.58;;;2.10;;
22490;SDS011;11412;50.802;4.350;2023-03-14T05:23:08;2.08;;;1.90;;
22490;SDS011;11412;50.802;4.350;2023-03-14T05:25:34;1.70;;;1.60;;
22490;SDS011;11412;50.802;4.350;2023-03-14T05:28:00;2.92;;;1.70;;
22490;SDS011;11412;50.802;4.350;2023-03-14T05:30:26;1.55;;;1.48;;
22490;SDS011;11412;50.802;4.350;2023-03-14T05:32:53;2.38;;;1.85;;
22490;SDS011;11412;50.802;4.350;2023-03-14T05:35:19;3.28;;;2.17;;
22490;SDS011;11412;50.802;4.350;2023-03-14T05:37:44;1.70;;;1.60;;
22490;SDS011;11412;50.802;4.350;2023-03-14T05:40:10;3.30;;;2.00;;
22490;SDS011;11412;50.802;4.350;2023-03-14T05:42:37;2.58;;;1.90;;
22490;SDS011;11412;50.802;4.350;2023-03-14T05:45:02;2.35;;;1.60;;
22490;SDS011;11412;50.802;4.350;2023-03-14T05:47:28;4.47;;;1.85;;
22490;SDS011;11412;50.802;4.350;2023-03-14T05:49:54;2.00;;;1.90;;
22490;SDS011;11412;50.802;4.350;2023-03-14T05:52:19;5.43;;;1.77;;
22490;SDS011;11412;50.802;4.350;2023-03-14T05:54:45;3.08;;;1.83;;
22490;SDS011;11412;50.802;4.350;2023-03-14T05:57:11;2.72;;;2.33;;
22490;SDS011;11412;50.802;4.350;2023-03-14T05:59:36;2.50;;;2.13;;
22490;SDS011;11412;50.802;4.350;2023-03-14T06:02:02;2.83;;;1.85;;
22490;SDS011;11412;50.802;4.350;2023-03-14T06:04:27;2.08;;;1.98;;
22490;SDS011;11412;50.802;4.350;2023-03-14T06:06:53;4.32;;;2.13;;
22490;SDS011;11412;50.802;4.350;2023-03-14T06:09:19;2.42;;;1.77;;
22490;SDS011;11412;50.802;4.350;2023-03-14T06:11:47;6.10;;;3.25;;
22490;SDS011;11412;50.802;4.350;2023-03-14T06:14:13;2.00;;;1.90;;
22490;SDS011;11412;50.802;4.350;2023-03-14T06:16:38;2.63;;;2.13;;
22490;SDS011;11412;50.802;4.350;2023-03-14T06:19:04;3.30;;;2.00;;
22490;SDS011;11412;50.802;4.350;2023-03-14T06:21:30;4.05;;;1.90;;
22490;SDS011;11412;50.802;4.350;2023-03-14T06:23:56;1.70;;;1.60;;
22490;SDS011;11412;50.802;4.350;2023-03-14T06:26:21;2.47;;;1.60;;
22490;SDS011;11412;50.802;4.350;2023-03-14T06:28:48;2.25;;;1.60;;
22490;SDS011;11412;50.802;4.350;2023-03-14T06:31:14;4.80;;;2.03;;
22490;SDS011;11412;50.802;4.350;2023-03-14T06:33:40;2.85;;;1.88;;
22490;SDS011;11412;50.802;4.350;2023-03-14T06:36:05;4.45;;;1.83;;
22490;SDS011;11412;50.802;4.350;2023-03-14T06:38:31;3.65;;;1.70;;
22490;SDS011;11412;50.802;4.350;2023-03-14T06:41:02;1.60;;;1.50;;
22490;SDS011;11412;50.802;4.350;2023-03-14T06:43:31;1.95;;;1.58;;
22490;SDS011;11412;50.802;4.350;2023-03-14T06:45:57;2.92;;;1.70;;
22490;SDS011;11412;50.802;4.350;2023-03-14T06:48:23;2.15;;;1.70;;
22490;SDS011;11412;50.802;4.350;2023-03-14T06:50:48;3.17;;;1.77;;
22490;SDS011;11412;50.802;4.350;2023-03-14T06:53:14;3.72;;;1.67;;
22490;SDS011;11412;50.802;4.350;2023-03-14T06:55:40;3.08;;;1.70;;
22490;SDS011;11412;50.802;4.350;2023-03-14T06:58:05;5.57;;;2.22;;
22490;SDS011;11412;50.802;4.350;2023-03-14T07:00:33;6.43;;;1.75;;
22490;SDS011;11412;50.802;4.350;2023-03-14T07:02:59;9.50;;;3.03;;
22490;SDS011;11412;50.802;4.350;2023-03-14T07:05:24;5.60;;;1.85;;
22490;SDS011;11412;50.802;4.350;2023-03-14T07:07:50;4.93;;;1.92;;
22490;SDS011;11412;50.802;4.350;2023-03-14T07:10:16;6.50;;;2.35;;
22490;SDS011;11412;50.802;4.350;2023-03-14T07:12:42;3.45;;;1.30;;
22490;SDS011;11412;50.802;4.350;2023-03-14T07:15:08;2.25;;;1.05;;
22490;SDS011;11412;50.802;4.350;2023-03-14T07:17:34;1.60;;;0.90;;
22490;SDS011;11412;50.802;4.350;2023-03-14T07:19:59;1.88;;;0.90;;
22490;SDS011;11412;50.802;4.350;2023-03-14T07:22:26;2.42;;;1.00;;
22490;SDS011;11412;50.802;4.350;2023-03-14T07:24:51;2.00;;;0.80;;
22490;SDS011;11412;50.802;4.350;2023-03-14T07:27:17;4.18;;;1.40;;
22490;SDS011;11412;50.802;4.350;2023-03-14T07:29:42;4.35;;;1.20;;
22490;SDS011;11412;50.802;4.350;2023-03-14T07:32:08;1.92;;;1.30;;
22490;SDS011;11412;50.802;4.350;2023-03-14T07:34:34;2.42;;;1.10;;
22490;SDS011;11412;50.802;4.350;2023-03-14T07:37:00;5.20;;;0.95;;
22490;SDS011;11412;50.802;4.350;2023-03-14T07:39:26;1.90;;;1.15;;
22490;SDS011;11412;50.802;4.350;2023-03-14T07:41:51;1.67;;;1.15;;
22490;SDS011;11412;50.802;4.350;2023-03-14T07:44:17;2.88;;;1.60;;
22490;SDS011;11412;50.802;4.350;2023-03-14T07:46:43;1.15;;;0.98;;
22490;SDS011;11412;50.802;4.350;2023-03-14T07:49:08;2.38;;;1.10;;
22490;SDS011;11412;50.802;4.350;2023-03-14T07:51:34;5.03;;;1.30;;
22490;SDS011;11412;50.802;4.350;2023-03-14T07:54:00;2.42;;;1.27;;
22490;SDS011;11412;50.802;4.350;2023-03-14T07:56:25;4.47;;;1.60;;
22490;SDS011;11412;50.802;4.350;2023-03-14T07:58:51;3.45;;;1.73;;
22490;SDS011;11412;50.802;4.350;2023-03-14T08:01:16;6.55;;;2.05;;
22490;SDS011;11412;50.802;4.350;2023-03-14T08:03:42;5.63;;;2.05;;
22490;SDS011;11412;50.802;4.350;2023-03-14T08:06:08;2.25;;;2.00;;
22490;SDS011;11412;50.802;4.350;2023-03-14T08:08:33;3.33;;;2.05;;
22490;SDS011;11412;50.802;4.350;2023-03-14T08:11:03;2.88;;;2.10;;
22490;SDS011;11412;50.802;4.350;2023-03-14T08:13:30;2.42;;;2.22;;
22490;SDS011;11412;50.802;4.350;2023-03-14T08:15:56;3.83;;;2.40;;
22490;SDS011;11412;50.802;4.350;2023-03-14T08:18:22;3.28;;;2.05;;
22490;SDS011;11412;50.802;4.350;2023-03-14T08:20:47;5.38;;;2.28;;
22490;SDS011;11412;50.802;4.350;2023-03-14T08:23:13;2.83;;;1.80;;
22490;SDS011;11412;50.802;4.350;2023-03-14T08:25:39;3.13;;;2.10;;
22490;SDS011;11412;50.802;4.350;2023-03-14T08:28:04;5.03;;;2.50;;
22490;SDS011;11412;50.802;4.350;2023-03-14T08:30:30;6.38;;;2.10;;
22490;SDS011;11412;50.802;4.350;2023-03-14T08:32:56;3.85;;;1.90;;
22490;SDS011;11412;50.802;4.350;2023-03-14T08:35:23;3.70;;;1.90;;
22490;SDS011;11412;50.802;4.350;2023-03-14T08:37:50;5.38;;;1.85;;
22490;SDS011;11412;50.802;4.350;2023-03-14T08:40:17;8.32;;;2.20;;
22490;SDS011;11412;50.802;4.350;2023-03-14T08:42:43;6.10;;;1.88;;
22490;SDS011;11412;50.802;4.350;2023-03-14T08:45:11;6.25;;;2.53;;
22490;SDS011;11412;50.802;4.350;2023-03-14T08:47:37;5.40;;;2.22;;
22490;SDS011;11412;50.802;4.350;2023-03-14T08:50:03;5.78;;;2.30;;
22490;SDS011;11412;50.802;4.350;2023-03-14T08:52:30;3.83;;;1.95;;
22490;SDS011;11412;50.802;4.350;2023-03-14T08:54:57;5.88;;;2.00;;
22490;SDS011;11412;50.802;4.350;2023-03-14T08:57:22;4.70;;;2.10;;
22490;SDS011;11412;50.802;4.350;2023-03-14T08:59:52;4.47;;;2.00;;
22490;SDS011;11412;50.802;4.350;2023-03-14T09:02:22;6.00;;;1.70;;
22490;SDS011;11412;50.802;4.350;2023-03-14T09:04:51;4.05;;;1.90;;
22490;SDS011;11412;50.802;4.350;2023-03-14T09:07:18;6.20;;;2.00;;
22490;SDS011;11412;50.802;4.350;2023-03-14T09:09:44;4.80;;;2.10;;
22490;SDS011;11412;50.802;4.350;2023-03-14T09:12:10;3.35;;;1.88;;
22490;SDS011;11412;50.802;4.350;2023-03-14T09:14:35;7.35;;;2.00;;
22490;SDS011;11412;50.802;4.350;2023-03-14T09:17:02;10.45;;;2.33;;
22490;SDS011;11412;50.802;4.350;2023-03-14T09:19:28;8.73;;;1.98;;
22490;SDS011;11412;50.802;4.350;2023-03-14T09:21:54;5.95;;;2.00;;
22490;SDS011;11412;50.802;4.350;2023-03-14T09:24:19;5.22;;;1.95;;
22490;SDS011;11412;50.802;4.350;2023-03-14T09:26:45;4.90;;;1.60;;
22490;SDS011;11412;50.802;4.350;2023-03-14T09:29:11;5.97;;;2.00;;
22490;SDS011;11412;50.802;4.350;2023-03-14T09:31:37;6.43;;;2.13;;
22490;SDS011;11412;50.802;4.350;2023-03-14T09:34:02;7.75;;;2.20;;
22490;SDS011;11412;50.802;4.350;2023-03-14T09:36:29;10.45;;;2.08;;
22490;SDS011;11412;50.802;4.350;2023-03-14T09:38:55;4.13;;;1.55;;
22490;SDS011;11412;50.802;4.350;2023-03-14T09:41:23;3.40;;;1.75;;
22490;SDS011;11412;50.802;4.350;2023-03-14T09:44:02;10.40;;;2.40;;
22490;SDS011;11412;50.802;4.350;2023-03-14T09:46:34;3.15;;;1.80;;
22490;SDS011;11412;50.802;4.350;2023-03-14T09:49:02;4.25;;;1.85;;
22490;SDS011;11412;50.802;4.350;2023-03-14T09:51:39;6.00;;;1.98;;
22490;SDS011;11412;50.802;4.350;2023-03-14T09:54:11;4.60;;;1.80;;
22490;SDS011;11412;50.802;4.350;2023-03-14T09:56:59;8.35;;;1.95;;
22490;SDS011;11412;50.802;4.350;2023-03-14T09:59:25;7.18;;;2.33;;
22490;SDS011;11412;50.802;4.350;2023-03-14T10:01:53;4.80;;;1.85;;
22490;SDS011;11412;50.802;4.350;2023-03-14T10:04:23;10.77;;;2.28;;
22490;SDS011;11412;50.802;4.350;2023-03-14T10:06:49;9.13;;;2.13;;
22490;SDS011;11412;50.802;4.350;2023-03-14T10:09:17;7.32;;;2.20;;
22490;SDS011;11412;50.802;4.350;2023-03-14T10:11:51;7.95;;;1.85;;
22490;SDS011;11412;50.802;4.350;2023-03-14T10:14:28;2.70;;;1.50;;
22490;SDS011;11412;50.802;4.350;2023-03-14T10:16:59;6.45;;;2.00;;
22490;SDS011;11412;50.802;4.350;2023-03-14T10:19:34;8.48;;;2.03;;
22490;SDS011;11412;50.802;4.350;2023-03-14T10:22:01;9.20;;;2.08;;
22490;SDS011;11412;50.802;4.350;2023-03-14T10:24:33;5.50;;;2.55;;
22490;SDS011;11412;50.802;4.350;2023-03-14T10:27:17;3.42;;;1.60;;
22490;SDS011;11412;50.802;4.350;2023-03-14T10:29:54;3.50;;;1.08;;
22490;SDS011;11412;50.802;4.350;2023-03-14T10:32:22;3.25;;;1.35;;
22490;SDS011;11412;50.802;4.350;2023-03-14T10:35:07;5.68;;;1.60;;
22490;SDS011;11412;50.802;4.350;2023-03-14T10:37:50;5.63;;;1.90;;
22490;SDS011;11412;50.802;4.350;2023-03-14T10:40:26;7.95;;;1.50;;
22490;SDS011;11412;50.802;4.350;2023-03-14T10:42:57;6.10;;;1.75;;
22490;SDS011;11412;50.802;4.350;2023-03-14T10:45:38;5.97;;;1.80;;
22490;SDS011;11412;50.802;4.350;2023-03-14T10:51:02;3.28;;;1.48;;
22490;SDS011;11412;50.802;4.350;2023-03-14T10:56:18;4.35;;;1.42;;
22490;SDS011;11412;50.802;4.350;2023-03-14T10:58:47;3.85;;;1.38;;
22490;SDS011;11412;50.802;4.350;2023-03-14T11:06:37;3.58;;;1.15;;
22490;SDS011;11412;50.802;4.350;2023-03-14T11:21:13;3.97;;;1.38;;
22490;SDS011;11412;50.802;4.350;2023-03-14T11:23:46;4.28;;;1.50;;
22490;SDS011;11412;50.802;4.350;2023-03-14T11:31:48;2.88;;;0.77;;
22490;SDS011;11412;50.802;4.350;2023-03-14T11:36:47;5.50;;;1.17;;
22490;SDS011;11412;50.802;4.350;2023-03-14T11:39:35;1.65;;;0.60;;
22490;SDS011;11412;50.802;4.350;2023-03-14T11:42:04;0.93;;;0.60;;
22490;SDS011;11412;50.802;4.350;2023-03-14T11:44:39;0.68;;;0.68;;
22490;SDS011;11412;50.802;4.350;2023-03-14T11:47:12;2.17;;;0.70;;
22490;SDS011;11412;50.802;4.350;2023-03-14T11:52:25;0.68;;;0.60;;
22490;SDS011;11412;50.802;4.350;2023-03-14T11:55:07;0.63;;;0.47;;
22490;SDS011;11412;50.802;4.350;2023-03-14T11:57:35;1.75;;;0.30;;
22490;SDS011;11412;50.802;4.350;2023-03-14T12:00:19;2.83;;;0.60;;
22490;SDS011;11412;50.802;4.350;2023-03-14T12:13:37;1.75;;;0.52;;
22490;SDS011;11412;50.802;4.350;2023-03-14T12:16:09;1.35;;;0.70;;
22490;SDS011;11412;50.802;4.350;2023-03-14T12:22:17;3.22;;;0.90;;
22490;SDS011;11412;50.802;4.350;2023-03-14T12:24:57;5.88;;;2.10;;
22490;SDS011;11412;50.802;4.350;2023-03-14T12:30:24;2.60;;;1.00;;
22490;SDS011;11412;50.802;4.350;2023-03-14T12:38:02;1.85;;;1.00;;
22490;SDS011;11412;50.802;4.350;2023-03-14T12:43:38;1.45;;;0.90;;
22490;SDS011;11412;50.802;4.350;2023-03-14T12:48:40;4.07;;;1.00;;
22490;SDS011;11412;50.802;4.350;2023-03-14T12:51:14;2.47;;;1.27;;
22490;SDS011;11412;50.802;4.350;2023-03-14T13:07:15;3.45;;;1.20;;
22490;SDS011;11412;50.802;4.350;2023-03-14T13:10:00;3.45;;;1.20;;
22490;SDS011;11412;50.802;4.350;2023-03-14T13:17:56;1.45;;;1.17;;
22490;SDS011;11412;50.802;4.350;2023-03-14T13:22:52;3.03;;;1.35;;
22490;SDS011;11412;50.802;4.350;2023-03-14T13:25:18;1.55;;;1.45;;
22490;SDS011;11412;50.802;4.350;2023-03-14T13:27:46;2.95;;;1.63;;
22490;SDS011;11412;50.802;4.350;2023-03-14T13:32:52;6.38;;;1.40;;
22490;SDS011;11412;50.802;4.350;2023-03-14T13:37:47;3.63;;;1.40;;
22490;SDS011;11412;50.802;4.350;2023-03-14T13:40:21;4.78;;;1.88;;
22490;SDS011;11412;50.802;4.350;2023-03-14T13:42:59;10.20;;;1.90;;
22490;SDS011;11412;50.802;4.350;2023-03-14T13:45:27;2.97;;;1.30;;
22490;SDS011;11412;50.802;4.350;2023-03-14T13:47:52;8.63;;;2.00;;
22490;SDS011;11412;50.802;4.350;2023-03-14T13:50:18;9.35;;;2.13;;
22490;SDS011;11412;50.802;4.350;2023-03-14T13:52:44;5.72;;;1.77;;
22490;SDS011;11412;50.802;4.350;2023-03-14T13:55:15;6.78;;;1.75;;
22490;SDS011;11412;50.802;4.350;2023-03-14T13:57:43;11.30;;;2.00;;
22490;SDS011;11412;50.802;4.350;2023-03-14T14:02:52;13.90;;;2.78;;
22490;SDS011;11412;50.802;4.350;2023-03-14T14:05:19;9.77;;;1.98;;
22490;SDS011;11412;50.802;4.350;2023-03-14T14:07:45;8.45;;;2.42;;
22490;SDS011;11412;50.802;4.350;2023-03-14T14:10:12;9.95;;;2.10;;
22490;SDS011;11412;50.802;4.350;2023-03-14T14:12:43;8.70;;;2.10;;
22490;SDS011;11412;50.802;4.350;2023-03-14T14:15:21;9.98;;;2.53;;
22490;SDS011;11412;50.802;4.350;2023-03-14T14:17:54;13.75;;;2.05;;
22490;SDS011;11412;50.802;4.350;2023-03-14T14:23:03;9.18;;;2.50;;
22490;SDS011;11412;50.802;4.350;2023-03-14T14:25:30;13.98;;;2.30;;
22490;SDS011;11412;50.802;4.350;2023-03-14T14:27:57;10.80;;;2.30;;
22490;SDS011;11412;50.802;4.350;2023-03-14T14:33:10;14.32;;;2.70;;
22490;SDS011;11412;50.802;4.350;2023-03-14T14:35:41;10.98;;;2.03;;
22490;SDS011;11412;50.802;4.350;2023-03-14T14:38:16;11.52;;;2.28;;
22490;SDS011;11412;50.802;4.350;2023-03-14T14:40:46;13.52;;;2.03;;
22490;SDS011;11412;50.802;4.350;2023-03-14T14:43:24;12.13;;;1.90;;
22490;SDS011;11412;50.802;4.350;2023-03-14T14:45:53;16.27;;;2.08;;
22490;SDS011;11412;50.802;4.350;2023-03-14T14:48:24;5.55;;;1.70;;
22490;SDS011;11412;50.802;4.350;2023-03-14T14:50:56;10.07;;;1.35;;
22490;SDS011;11412;50.802;4.350;2023-03-14T14:53:25;9.18;;;1.63;;
22490;SDS011;11412;50.802;4.350;2023-03-14T14:55:59;7.50;;;1.27;;
22490;SDS011;11412;50.802;4.350;2023-03-14T14:58:35;12.07;;;1.25;;
22490;SDS011;11412;50.802;4.350;2023-03-14T15:03:33;4.63;;;1.10;;
22490;SDS011;11412;50.802;4.350;2023-03-14T15:06:00;2.80;;;0.93;;
22490;SDS011;11412;50.802;4.350;2023-03-14T15:08:27;3.40;;;0.80;;
22490;SDS011;11412;50.802;4.350;2023-03-14T15:10:53;4.70;;;0.75;;
22490;SDS011;11412;50.802;4.350;2023-03-14T15:13:20;5.18;;;0.70;;
22490;SDS011;11412;50.802;4.350;2023-03-14T15:15:46;1.45;;;0.20;;
22490;SDS011;11412;50.802;4.350;2023-03-14T15:18:13;1.42;;;0.60;;
22490;SDS011;11412;50.802;4.350;2023-03-14T15:20:41;1.23;;;0.30;;
22490;SDS011;11412;50.802;4.350;2023-03-14T15:23:09;1.42;;;0.47;;
22490;SDS011;11412;50.802;4.350;2023-03-14T15:25:39;2.67;;;0.70;;
22490;SDS011;11412;50.802;4.350;2023-03-14T15:30:46;2.75;;;0.75;;
22490;SDS011;11412;50.802;4.350;2023-03-14T15:33:12;2.92;;;0.85;;
22490;SDS011;11412;50.802;4.350;2023-03-14T15:35:38;1.63;;;0.80;;
22490;SDS011;11412;50.802;4.350;2023-03-14T15:38:04;1.42;;;0.77;;
22490;SDS011;11412;50.802;4.350;2023-03-14T15:40:30;2.53;;;0.70;;
22490;SDS011;11412;50.802;4.350;2023-03-14T15:42:56;2.40;;;0.82;;
22490;SDS011;11412;50.802;4.350;2023-03-14T15:45:21;1.35;;;0.60;;
22490;SDS011;11412;50.802;4.350;2023-03-14T15:47:47;1.50;;;0.68;;
22490;SDS011;11412;50.802;4.350;2023-03-14T15:50:12;4.78;;;0.90;;
22490;SDS011;11412;50.802;4.350;2023-03-14T15:52:38;1.08;;;0.82;;
22490;SDS011;11412;50.802;4.350;2023-03-14T15:55:04;2.60;;;0.70;;
22490;SDS011;11412;50.802;4.350;2023-03-14T15:57:30;2.13;;;0.70;;
22490;SDS011;11412;50.802;4.350;2023-03-14T15:59:56;2.90;;;0.77;;
22490;SDS011;11412;50.802;4.350;2023-03-14T16:02:21;3.72;;;0.77;;
22490;SDS011;11412;50.802;4.350;2023-03-14T16:04:47;0.95;;;0.50;;
22490;SDS011;11412;50.802;4.350;2023-03-14T16:07:12;2.97;;;0.88;;
22490;SDS011;11412;50.802;4.350;2023-03-14T16:09:38;1.15;;;0.70;;
22490;SDS011;11412;50.802;4.350;2023-03-14T16:12:04;4.70;;;1.38;;
22490;SDS011;11412;50.802;4.350;2023-03-14T16:14:32;6.28;;;1.58;;
22490;SDS011;11412;50.802;4.350;2023-03-14T16:16:58;6.70;;;1.35;;
22490;SDS011;11412;50.802;4.350;2023-03-14T16:19:24;3.78;;;1.52;;
22490;SDS011;11412;50.802;4.350;2023-03-14T16:21:51;3.78;;;1.33;;
22490;SDS011;11412;50.802;4.350;2023-03-14T16:24:17;3.65;;;1.20;;
22490;SDS011;11412;50.802;4.350;2023-03-14T16:26:44;7.82;;;1.40;;
22490;SDS011;11412;50.802;4.350;2023-03-14T16:29:10;7.22;;;1.58;;
22490;SDS011;11412;50.802;4.350;2023-03-14T16:31:36;4.10;;;1.30;;
22490;SDS011;11412;50.802;4.350;2023-03-14T16:34:09;1.60;;;1.13;;
22490;SDS011;11412;50.802;4.350;2023-03-14T16:36:37;5.28;;;1.48;;